createdAt,value
2023-04-29T00:02:00.154Z,100496.25
2023-04-29T00:04:30.359Z,100506.53
2023-04-29T00:07:00.298Z,100499.66
2023-04-29T00:09:30.004Z,100506.47
2023-04-29T00:11:59.824Z,100491.03
2023-04-29T00:14:32.128Z,100492.75
2023-04-29T00:17:01.946Z,100503.00
2023-04-29T00:19:31.720Z,100500.41
2023-04-29T00:22:01.540Z,100491.03
2023-04-29T00:24:31.331Z,100497.09
2023-04-29T00:27:01.815Z,100496.16
2023-04-29T00:29:34.169Z,100504.72
2023-04-29T00:32:04.133Z,100515.81
2023-04-29T00:34:33.898Z,100507.28
2023-04-29T00:37:04.221Z,100486.69
2023-04-29T00:39:34.418Z,100486.63
2023-04-29T00:42:04.288Z,100514.88
2023-04-29T00:44:36.611Z,100517.47
2023-04-29T00:47:06.432Z,100519.91
2023-04-29T00:49:36.188Z,100527.66
2023-04-29T00:52:08.266Z,100368.03
2023-04-29T00:54:38.169Z,100473.56
2023-04-29T00:57:09.050Z,100490.72
2023-04-29T00:59:41.640Z,100532.75
2023-04-29T01:02:11.777Z,100535.28
2023-04-29T01:04:41.509Z,100541.25
2023-04-29T01:07:18.439Z,100536.16
2023-04-29T01:09:59.866Z,100542.00
2023-04-29T01:12:37.180Z,100538.66
2023-04-29T01:15:24.012Z,100537.78
2023-04-29T01:18:00.285Z,100544.63
2023-04-29T01:20:31.255Z,100525.66
2023-04-29T01:23:02.063Z,100541.94
2023-04-29T01:25:34.844Z,100565.06
2023-04-29T01:28:23.903Z,100560.75
2023-04-29T01:31:00.354Z,100545.34
2023-04-29T01:33:38.182Z,100564.22
2023-04-29T01:36:19.817Z,100567.59
2023-04-29T01:38:56.642Z,100570.09
2023-04-29T01:41:38.402Z,100577.84
2023-04-29T01:44:21.744Z,100564.06
2023-04-29T01:46:54.817Z,100570.88
2023-04-29T01:49:29.687Z,100563.09
2023-04-29T01:51:59.437Z,100576.00
2023-04-29T01:54:29.175Z,100563.97
2023-04-29T01:57:02.922Z,100575.16
2023-04-29T01:59:58.626Z,100557.03
2023-04-29T02:02:42.981Z,100595.53
2023-04-29T02:05:26.573Z,100580.88
2023-04-29T02:07:59.668Z,100594.63
2023-04-29T02:10:29.550Z,100602.38
2023-04-29T02:13:13.859Z,100608.34
2023-04-29T02:15:44.706Z,100617.63
2023-04-29T02:18:14.806Z,100613.31
2023-04-29T02:20:44.781Z,100598.72
2023-04-29T02:23:14.763Z,100614.91
2023-04-29T02:25:44.485Z,100610.59
2023-04-29T02:28:17.998Z,100637.00
2023-04-29T02:30:47.790Z,100633.44
2023-04-29T02:33:18.531Z,100642.88
2023-04-29T02:35:48.555Z,100650.53
2023-04-29T02:38:19.536Z,100646.94
2023-04-29T02:40:50.615Z,100655.56
2023-04-29T02:43:23.308Z,100655.53
2023-04-29T02:45:53.122Z,100655.41
2023-04-29T02:48:23.090Z,100663.94
2023-04-29T02:50:53.006Z,100658.84
2023-04-29T02:53:23.514Z,100651.25
2023-04-29T02:55:53.309Z,100661.47
2023-04-29T02:58:25.703Z,100652.78
2023-04-29T03:00:55.657Z,100670.88
2023-04-29T03:03:25.999Z,100670.69
2023-04-29T03:05:55.844Z,100677.31
2023-04-29T03:08:25.629Z,100680.81
2023-04-29T03:10:55.367Z,100679.09
2023-04-29T03:13:28.411Z,100678.22
2023-04-29T03:15:58.846Z,100666.03
2023-04-29T03:18:28.926Z,100685.81
2023-04-29T03:20:58.791Z,100661.78
2023-04-29T03:23:28.652Z,100672.91
2023-04-29T03:25:58.933Z,100693.41
2023-04-29T03:28:31.583Z,100681.31
2023-04-29T03:31:02.110Z,100701.84
2023-04-29T03:33:32.004Z,100683.75
2023-04-29T03:36:01.939Z,100706.78
2023-04-29T03:38:38.299Z,100703.31
2023-04-29T03:41:08.459Z,100701.59
2023-04-29T03:43:41.096Z,100692.88
2023-04-29T03:46:10.921Z,100698.81
2023-04-29T03:48:41.216Z,100709.16
2023-04-29T03:51:14.321Z,100700.47
2023-04-29T03:53:44.662Z,100695.19
2023-04-29T03:56:15.483Z,100695.34
2023-04-29T03:58:49.279Z,100724.69
2023-04-29T04:01:19.574Z,100703.22
2023-04-29T04:03:49.828Z,100719.56
2023-04-29T04:06:19.818Z,100724.53
2023-04-29T04:08:50.150Z,100742.44
2023-04-29T04:11:23.740Z,100740.50
2023-04-29T04:14:02.024Z,100755.81
2023-04-29T04:16:32.835Z,100750.53
2023-04-29T04:19:03.024Z,100714.34
2023-04-29T04:21:34.823Z,100731.59
2023-04-29T04:24:10.040Z,100762.59
2023-04-29T04:26:41.649Z,100768.59
2023-04-29T04:29:14.365Z,100748.09
2023-04-29T04:32:13.128Z,100774.72
2023-04-29T04:34:43.060Z,100781.56
2023-04-29T04:37:13.324Z,100760.06
2023-04-29T04:39:45.096Z,100780.69
2023-04-29T04:42:17.141Z,100711.81
2023-04-29T04:44:51.792Z,100795.25
2023-04-29T04:47:34.641Z,100782.34
2023-04-29T04:50:10.651Z,100798.59
2023-04-29T04:52:41.280Z,100784.69
2023-04-29T04:55:29.687Z,100776.81
2023-04-29T04:57:59.746Z,100811.13
2023-04-29T05:00:32.683Z,100819.53
2023-04-29T05:03:02.759Z,100806.44
2023-04-29T05:05:32.582Z,100819.34
2023-04-29T05:08:02.414Z,100806.41
2023-04-29T05:10:44.605Z,100820.25
2023-04-29T05:13:15.341Z,100821.97
2023-04-29T05:15:48.491Z,100813.94
2023-04-29T05:18:23.443Z,100837.09
2023-04-29T05:20:54.680Z,100833.63
2023-04-29T05:23:24.568Z,100823.13
2023-04-29T05:25:55.011Z,100841.22
2023-04-29T05:28:26.042Z,100829.38
2023-04-29T05:31:01.453Z,100842.44
2023-04-29T05:33:31.249Z,100849.38
2023-04-29T05:36:01.136Z,100855.38
2023-04-29T05:38:31.434Z,100845.00
2023-04-29T05:41:06.537Z,100857.81
2023-04-29T05:43:46.506Z,100834.63
2023-04-29T05:46:20.758Z,100864.53
2023-04-29T05:48:52.165Z,100871.31
2023-04-29T05:51:22.146Z,100878.13
2023-04-29T05:53:52.330Z,100864.19
2023-04-29T05:56:22.606Z,100873.53
2023-04-29T05:58:52.493Z,100887.16
2023-04-29T06:01:24.815Z,100897.28
2023-04-29T06:03:54.865Z,100876.31
2023-04-29T06:06:41.389Z,100902.63
2023-04-29T06:09:27.448Z,100900.13
2023-04-29T06:11:59.796Z,100911.41
2023-04-29T06:14:29.602Z,100900.00
2023-04-29T06:17:02.256Z,100920.63
2023-04-29T06:19:33.745Z,100931.59
2023-04-29T06:22:03.565Z,100935.94
2023-04-29T06:24:34.353Z,100935.09
2023-04-29T06:27:04.829Z,100936.13
2023-04-29T06:29:34.770Z,100919.53
2023-04-29T06:32:08.035Z,100952.06
2023-04-29T06:34:39.635Z,100951.00
2023-04-29T06:37:29.157Z,100958.91
2023-04-29T06:40:28.278Z,100952.66
2023-04-29T06:43:08.297Z,100931.25
2023-04-29T06:45:58.369Z,100955.44
2023-04-29T06:48:38.179Z,100956.59
2023-04-29T06:51:08.488Z,100977.16
2023-04-29T06:53:40.155Z,100983.25
2023-04-29T06:56:10.872Z,100930.53
2023-04-29T06:58:40.601Z,100999.44
2023-04-29T07:01:11.163Z,100980.69
2023-04-29T07:03:44.032Z,101005.06
2023-04-29T07:06:15.000Z,101016.94
2023-04-29T07:08:44.880Z,100977.31
2023-04-29T07:11:15.066Z,101016.97
2023-04-29T07:13:44.864Z,100981.56
2023-04-29T07:16:20.660Z,101006.75
2023-04-29T07:18:53.126Z,101029.22
2023-04-29T07:21:22.884Z,101029.00
2023-04-29T07:23:52.742Z,101031.09
2023-04-29T07:26:22.518Z,101039.78
2023-04-29T07:28:52.306Z,101033.47
2023-04-29T07:31:22.733Z,101026.38
2023-04-29T07:33:55.327Z,101044.75
2023-04-29T07:36:25.244Z,101041.22
2023-04-29T07:38:55.257Z,101043.56
2023-04-29T07:41:25.041Z,101055.19
2023-04-29T07:43:54.783Z,101067.16
2023-04-29T07:46:24.624Z,101055.91
2023-04-29T07:48:58.528Z,101037.41
2023-04-29T07:51:29.306Z,101077.22
2023-04-29T07:53:59.059Z,101071.88
2023-04-29T07:56:28.816Z,101082.25
2023-04-29T07:58:58.590Z,101093.59
2023-04-29T08:01:28.485Z,101053.78
2023-04-29T08:04:01.218Z,101102.69
2023-04-29T08:06:31.393Z,101107.81
2023-04-29T08:09:02.709Z,101099.97
2023-04-29T08:11:33.095Z,101105.28
2023-04-29T08:14:02.922Z,101102.47
2023-04-29T08:16:32.730Z,101112.97
2023-04-29T08:19:05.238Z,101120.19
2023-04-29T08:21:35.441Z,101086.84
2023-04-29T08:24:05.888Z,101095.63
2023-04-29T08:26:35.672Z,101074.00
2023-04-29T08:29:05.649Z,101106.59
2023-04-29T08:31:35.705Z,101122.47
2023-04-29T08:34:08.067Z,101107.09
2023-04-29T08:36:38.845Z,101138.25
2023-04-29T08:39:09.066Z,101127.94
2023-04-29T08:41:40.000Z,101124.41
2023-04-29T08:44:09.814Z,101147.59
2023-04-29T08:46:40.197Z,101145.22
2023-04-29T08:49:13.141Z,101152.19
2023-04-29T08:51:42.953Z,101134.97
2023-04-29T08:54:14.071Z,101146.22
2023-04-29T08:56:48.742Z,101167.81
2023-04-29T08:59:20.258Z,101161.16
2023-04-29T09:01:54.104Z,101153.34
2023-04-29T09:04:40.982Z,101141.16
2023-04-29T09:07:11.377Z,101170.19
2023-04-29T09:09:42.769Z,101165.75
2023-04-29T09:12:12.543Z,101155.69
2023-04-29T09:14:42.318Z,101170.56
2023-04-29T09:17:12.133Z,101167.63
2023-04-29T09:19:44.627Z,101153.13
2023-04-29T09:22:14.421Z,101172.69
2023-04-29T09:24:45.766Z,101171.34
2023-04-29T09:27:29.891Z,101181.84
2023-04-29T09:30:03.866Z,101189.88
2023-04-29T09:32:33.844Z,101190.34
2023-04-29T09:35:25.100Z,101194.34
2023-04-29T09:37:56.664Z,101190.88
2023-04-29T09:40:40.433Z,101192.44
2023-04-29T09:43:18.493Z,101163.81
2023-04-29T09:45:50.092Z,101201.47
2023-04-29T09:48:20.515Z,101202.19
2023-04-29T09:51:04.801Z,101200.66
2023-04-29T09:53:38.199Z,101189.38
2023-04-29T09:56:09.514Z,101174.94
2023-04-29T09:58:40.569Z,101197.69
2023-04-29T10:01:13.580Z,101184.06
2023-04-29T10:03:45.261Z,101193.06
2023-04-29T10:06:20.034Z,101207.03
2023-04-29T10:08:51.030Z,101208.97
2023-04-29T10:11:21.034Z,101148.06
2023-04-29T10:13:53.134Z,101208.13
2023-04-29T10:16:31.907Z,101210.66
2023-04-29T10:19:07.088Z,101187.72
2023-04-29T10:21:39.739Z,101201.81
2023-04-29T10:24:10.747Z,101216.63
2023-04-29T10:26:42.524Z,101223.25
2023-04-29T10:29:14.142Z,101207.63
2023-04-29T10:31:46.243Z,101225.72
2023-04-29T10:34:16.724Z,101212.81
2023-04-29T10:36:50.032Z,101219.22
2023-04-29T10:39:30.800Z,101213.38
2023-04-29T10:42:01.204Z,101206.63
2023-04-29T10:44:30.950Z,101219.50
2023-04-29T10:47:22.319Z,101204.13
2023-04-29T10:50:07.605Z,101205.03
2023-04-29T10:52:58.107Z,101215.09
2023-04-29T10:55:28.106Z,101221.22
2023-04-29T10:57:58.738Z,101213.16
2023-04-29T11:00:30.795Z,101217.56
2023-04-29T11:03:02.527Z,101175.31
2023-04-29T11:05:37.185Z,101225.34
2023-04-29T11:08:23.190Z,101213.47
2023-04-29T11:10:55.784Z,101225.66
2023-04-29T11:13:28.160Z,101219.72
2023-04-29T11:16:07.371Z,101218.06
2023-04-29T11:18:38.170Z,101230.03
2023-04-29T11:21:17.807Z,101219.81
2023-04-29T11:23:51.057Z,101237.06
2023-04-29T11:26:22.473Z,101213.63
2023-04-29T11:28:54.755Z,101224.00
2023-04-29T11:31:25.391Z,101236.25
2023-04-29T11:33:56.630Z,101229.91
2023-04-29T11:36:27.462Z,101243.63
2023-04-29T11:38:59.824Z,101246.25
2023-04-29T11:41:29.735Z,101211.88
2023-04-29T11:44:00.395Z,101224.72
2023-04-29T11:46:34.082Z,101245.69
2023-04-29T11:49:04.829Z,101175.22
2023-04-29T11:51:34.645Z,101234.13
2023-04-29T11:54:08.304Z,101241.94
2023-04-29T11:56:40.965Z,101230.75
2023-04-29T11:59:10.901Z,101253.25
2023-04-29T12:01:40.895Z,101230.91
2023-04-29T12:04:10.839Z,101233.53
2023-04-29T12:06:41.859Z,101252.59
2023-04-29T12:09:15.985Z,101242.31
2023-04-29T12:11:47.186Z,101251.72
2023-04-29T12:14:17.390Z,101220.50
2023-04-29T12:16:47.337Z,101246.09
2023-04-29T12:19:17.355Z,101251.22
2023-04-29T12:21:53.607Z,101253.78
2023-04-29T12:24:27.377Z,101256.31
2023-04-29T12:26:59.912Z,101254.56
2023-04-29T12:29:29.804Z,101238.75
2023-04-29T12:31:59.873Z,101252.38
2023-04-29T12:34:31.596Z,101254.09
2023-04-29T12:37:02.981Z,101252.22
2023-04-29T12:39:35.825Z,101261.66
2023-04-29T12:42:06.006Z,101266.91
2023-04-29T12:44:38.907Z,101253.09
2023-04-29T12:47:13.775Z,101264.25
2023-04-29T12:49:45.471Z,101260.66
2023-04-29T12:52:15.323Z,101265.66
2023-04-29T12:54:47.967Z,101264.97
2023-04-29T12:57:17.704Z,101248.69
2023-04-29T12:59:47.435Z,101264.44
2023-04-29T13:02:17.675Z,101274.97
2023-04-29T13:04:47.737Z,101272.50
2023-04-29T13:07:18.384Z,101277.53
2023-04-29T13:09:51.165Z,101275.63
2023-04-29T13:12:20.876Z,101277.38
2023-04-29T13:14:51.465Z,101283.41
2023-04-29T13:17:21.406Z,101277.31
2023-04-29T13:19:52.268Z,101279.81
2023-04-29T13:22:22.659Z,101267.94
2023-04-29T13:24:55.277Z,101279.16
2023-04-29T13:27:25.276Z,101286.00
2023-04-29T13:29:55.406Z,101283.66
2023-04-29T13:32:25.931Z,101245.84
2023-04-29T13:34:56.521Z,101288.09
2023-04-29T13:37:26.583Z,101273.47
2023-04-29T13:39:58.898Z,101281.97
2023-04-29T13:42:28.661Z,101287.84
2023-04-29T13:44:58.470Z,101283.44
2023-04-29T13:47:30.429Z,101295.44
2023-04-29T14:05:28.590Z,101303.34
2023-04-29T14:07:58.476Z,101291.22
2023-04-29T14:10:31.338Z,101303.16
2023-04-29T14:13:01.314Z,101294.66
2023-04-29T14:15:31.199Z,101274.91
2023-04-29T14:18:01.127Z,101283.78
2023-04-29T14:20:30.975Z,101274.69
2023-04-29T14:23:01.054Z,101290.31
2023-04-29T14:25:34.075Z,101287.69
2023-04-29T14:28:04.186Z,101266.88
2023-04-29T14:30:33.953Z,101291.72
2023-04-29T14:33:04.217Z,101277.75
2023-04-29T14:35:34.215Z,101283.72
2023-04-29T14:38:03.929Z,101280.19
2023-04-29T14:40:36.656Z,101306.88
2023-04-29T14:43:06.776Z,101314.53
2023-04-29T14:45:37.802Z,101306.94
2023-04-29T14:48:08.226Z,101312.16
2023-04-29T14:50:38.089Z,101310.47
2023-04-29T14:53:08.947Z,101313.19
2023-04-29T14:55:41.307Z,101315.06
2023-04-29T14:58:11.041Z,101302.06
2023-04-29T15:00:40.800Z,101321.09
2023-04-29T15:03:10.956Z,101330.44
2023-04-29T15:05:41.166Z,101309.69
2023-04-29T15:08:11.446Z,101321.81
2023-04-29T15:10:44.186Z,101308.03
2023-04-29T15:13:13.982Z,101313.28
2023-04-29T15:15:43.773Z,101328.88
2023-04-29T15:18:13.732Z,101333.19
2023-04-29T15:20:43.597Z,101290.06
2023-04-29T15:23:13.386Z,101309.03
2023-04-29T15:25:45.891Z,101323.59
2023-04-29T15:28:15.806Z,101333.06
2023-04-29T15:30:45.551Z,101341.50
2023-04-29T15:33:15.334Z,101325.69
2023-04-29T15:35:45.183Z,101328.00
2023-04-29T15:38:14.989Z,101346.06
2023-04-29T15:40:47.360Z,101294.25
2023-04-29T15:43:17.185Z,101350.31
2023-04-29T15:45:46.940Z,101340.84
2023-04-29T15:48:16.865Z,101338.22
2023-04-29T15:50:46.864Z,101352.94
2023-04-29T15:53:16.613Z,101354.69
2023-04-29T15:55:48.915Z,101321.19
2023-04-29T15:58:18.767Z,101342.84
2023-04-29T16:00:48.548Z,101317.09
2023-04-29T16:03:18.466Z,101325.72
2023-04-29T16:05:48.243Z,101375.75
2023-04-29T16:08:18.003Z,101368.84
2023-04-29T16:10:50.376Z,101374.63
2023-04-29T16:13:20.180Z,101360.69
2023-04-29T16:15:50.045Z,101376.97
2023-04-29T16:18:20.548Z,101381.34
2023-04-29T16:20:50.284Z,101364.22
2023-04-29T16:23:20.042Z,101384.91
2023-04-29T16:25:52.865Z,101381.44
2023-04-29T16:28:22.645Z,101387.25
2023-04-29T16:30:52.413Z,101387.09
2023-04-29T16:33:22.281Z,101384.53
2023-04-29T16:35:52.223Z,101386.19
2023-04-29T16:38:21.970Z,101372.31
2023-04-29T16:40:54.526Z,101392.03
2023-04-29T16:43:24.487Z,101389.34
2023-04-29T16:45:54.335Z,101379.78
2023-04-29T16:48:24.171Z,101392.78
2023-04-29T16:50:53.970Z,101393.59
2023-04-29T16:53:23.915Z,101397.00
2023-04-29T16:55:56.462Z,101370.16
2023-04-29T16:58:26.231Z,101384.53
2023-04-29T17:00:56.305Z,101381.94
2023-04-29T17:03:26.107Z,101399.09
2023-04-29T17:05:56.276Z,101383.44
2023-04-29T17:08:27.379Z,101410.16
2023-04-29T17:10:59.771Z,101410.00
2023-04-29T17:13:29.892Z,101399.56
2023-04-29T17:15:59.651Z,101417.50
2023-04-29T17:18:29.661Z,101400.31
2023-04-29T17:20:59.459Z,101427.97
2023-04-29T17:23:30.810Z,101434.88
2023-04-29T17:26:03.418Z,101379.59
2023-04-29T17:28:33.476Z,101420.47
2023-04-29T17:31:03.640Z,101428.84
2023-04-29T17:33:37.117Z,101421.72
2023-04-29T17:36:07.983Z,101427.84
2023-04-29T17:38:37.760Z,101440.69
2023-04-29T17:41:10.060Z,101432.03
2023-04-29T17:43:39.903Z,101437.84
2023-04-29T17:46:09.750Z,101431.69
2023-04-29T17:48:39.603Z,101420.53
2023-04-29T17:51:09.394Z,101447.25
2023-04-29T17:53:39.139Z,101458.13
2023-04-29T17:56:11.504Z,101405.03
2023-04-29T17:58:41.224Z,101436.97
2023-04-29T18:01:11.079Z,101437.50
2023-04-29T18:03:42.139Z,101439.94
2023-04-29T18:06:11.984Z,101454.59
2023-04-29T18:08:42.150Z,101467.56
2023-04-29T18:11:15.190Z,101461.44
2023-04-29T18:13:45.395Z,101467.56
2023-04-29T18:16:15.299Z,101480.28
2023-04-29T18:18:45.085Z,101464.75
2023-04-29T18:21:15.308Z,101458.78
2023-04-29T18:23:45.041Z,101474.97
2023-04-29T18:26:17.452Z,101476.66
2023-04-29T18:28:47.521Z,101467.03
2023-04-29T18:31:18.109Z,101452.41
2023-04-29T18:33:48.056Z,101479.50
2023-04-29T18:36:17.835Z,101487.88
2023-04-29T18:38:47.632Z,101427.78
2023-04-29T18:41:20.049Z,101488.25
2023-04-29T18:43:49.777Z,101475.97
2023-04-29T18:46:19.600Z,101495.50
2023-04-29T18:48:49.363Z,101491.09
2023-04-29T18:51:19.366Z,101486.69
2023-04-29T18:53:49.155Z,101500.34
2023-04-29T18:56:21.595Z,101508.03
2023-04-29T18:58:51.532Z,101501.88
2023-04-29T19:01:21.299Z,101511.25
2023-04-29T19:03:51.678Z,101507.63
2023-04-29T19:06:21.443Z,101519.44
2023-04-29T19:08:51.263Z,101532.88
2023-04-29T19:11:23.665Z,101547.09
2023-04-29T19:13:53.458Z,101547.34
2023-04-29T19:16:23.705Z,101554.72
2023-04-29T19:18:53.686Z,101523.41
2023-04-29T19:21:23.743Z,101556.53
2023-04-29T19:23:53.943Z,101556.97
2023-04-29T19:26:26.329Z,101571.16
2023-04-29T19:28:56.073Z,101570.91
2023-04-29T19:31:25.857Z,101576.44
2023-04-29T19:33:55.689Z,101566.38
2023-04-29T19:36:25.488Z,101592.00
2023-04-29T19:38:55.323Z,101583.59
2023-04-29T19:41:27.698Z,101601.50
2023-04-29T19:43:57.476Z,101594.16
2023-04-29T19:46:27.292Z,101584.41
2023-04-29T19:48:57.461Z,101585.22
2023-04-29T19:51:27.215Z,101601.59
2023-04-29T19:54:01.653Z,101610.47
2023-04-29T19:56:34.056Z,101599.16
2023-04-29T19:59:03.803Z,101532.25
2023-04-29T20:01:33.876Z,101607.38
2023-04-29T20:04:03.738Z,101584.91
2023-04-29T20:06:37.681Z,101593.50
2023-04-29T20:09:09.511Z,101608.25
2023-04-29T20:11:41.818Z,101612.88
2023-04-29T20:14:11.745Z,101623.22
2023-04-29T20:16:41.683Z,101624.44
2023-04-29T20:19:12.010Z,101639.28
2023-04-29T20:21:42.261Z,101637.06
2023-04-29T20:24:11.978Z,101628.59
2023-04-29T20:26:44.321Z,101643.31
2023-04-29T20:29:14.079Z,101637.00
2023-04-29T20:31:44.075Z,101624.06
2023-04-29T20:34:13.965Z,101641.22
2023-04-29T20:36:43.718Z,101655.81
2023-04-29T20:39:13.551Z,101648.97
2023-04-29T20:41:45.867Z,101663.41
2023-04-29T20:44:15.617Z,101642.34
2023-04-29T20:46:46.228Z,101654.25
2023-04-29T20:49:16.001Z,101660.22
2023-04-29T20:51:45.842Z,101659.94
2023-04-29T20:54:15.566Z,101598.97
2023-04-29T20:56:47.886Z,101665.00
2023-04-29T20:59:17.645Z,101669.88
2023-04-29T21:01:47.628Z,101669.72
2023-04-29T21:04:18.197Z,101639.09
2023-04-29T21:06:47.950Z,101669.22
2023-04-29T21:09:18.001Z,101665.44
2023-04-29T21:11:50.621Z,101682.38
2023-04-29T21:14:20.410Z,101668.47
2023-04-29T21:16:50.179Z,101669.19
2023-04-29T21:19:20.006Z,101677.97
2023-04-29T21:21:49.733Z,101691.53
2023-04-29T21:24:19.469Z,101670.69
2023-04-29T21:26:51.776Z,101680.91
2023-04-29T21:29:21.560Z,101693.66
2023-04-29T21:31:51.433Z,101698.53
2023-04-29T21:34:21.373Z,101627.78
2023-04-29T21:36:51.112Z,101694.00
2023-04-29T21:39:20.907Z,101696.50
2023-04-29T21:41:53.658Z,101700.16
2023-04-29T21:44:23.467Z,101702.44
2023-04-29T21:46:53.289Z,101695.69
2023-04-29T21:49:23.237Z,101653.81
2023-04-29T21:51:53.141Z,101689.97
2023-04-29T21:54:23.079Z,101693.50
2023-04-29T21:56:56.295Z,101690.91
2023-04-29T21:59:26.238Z,101643.38
2023-04-29T22:02:00.605Z,101696.78
2023-04-29T22:04:30.955Z,101682.53
2023-04-29T22:07:01.217Z,101710.19
2023-04-29T22:09:31.095Z,101709.38
2023-04-29T22:12:03.777Z,101683.81
2023-04-29T22:14:33.692Z,101715.03
2023-04-29T22:17:03.650Z,101712.09
2023-04-29T22:19:33.515Z,101710.09
2023-04-29T22:22:04.317Z,101711.06
2023-04-29T22:24:34.253Z,101696.84
2023-04-29T22:27:07.062Z,101711.38
2023-04-29T22:29:36.773Z,101711.50
2023-04-29T22:32:07.342Z,101689.25
2023-04-29T22:34:37.111Z,101707.09
2023-04-29T22:37:07.035Z,101716.41
2023-04-29T22:39:36.927Z,101686.84
2023-04-29T22:42:09.675Z,101706.88
2023-04-29T22:44:39.571Z,101714.81
2023-04-29T22:47:09.430Z,101712.63
2023-04-29T22:49:39.150Z,101721.81
2023-04-29T22:52:08.965Z,101716.47
2023-04-29T22:54:38.736Z,101720.66
2023-04-29T22:57:11.227Z,101709.06
2023-04-29T22:59:41.021Z,101725.13
2023-04-29T23:02:10.887Z,101729.53
2023-04-29T23:04:40.657Z,101726.50
2023-04-29T23:07:10.451Z,101680.75
2023-04-29T23:09:40.185Z,101737.00
2023-04-29T23:12:12.537Z,101724.19
2023-04-29T23:14:42.270Z,101697.09
2023-04-29T23:17:12.035Z,101736.34
2023-04-29T23:19:42.565Z,101727.78
2023-04-29T23:22:12.899Z,101725.88
2023-04-29T23:24:42.613Z,101741.69
2023-04-29T23:27:14.924Z,101740.13
2023-04-29T23:29:44.627Z,101753.75
2023-04-29T23:32:14.353Z,101745.97
2023-04-29T23:34:44.101Z,101700.78
2023-04-29T23:37:13.858Z,101754.41
2023-04-29T23:39:43.615Z,101744.16
2023-04-29T23:42:15.935Z,101760.72
2023-04-29T23:44:45.704Z,101749.94
2023-04-29T23:47:15.408Z,101758.50
2023-04-29T23:49:45.568Z,101739.94
2023-04-29T23:52:15.305Z,101751.19
2023-04-29T23:54:45.070Z,101702.91
2023-04-29T23:57:18.036Z,101762.66
2023-04-29T23:59:47.974Z,101760.03
